Time;durP1;ratioP1;P1;durP2;ratioP2;P2;SDS_P1;SDS_P2;PMS_P1;PMS_P2;Temp;Humidity;BMP_temperature;BMP_pressure;BME280_temperature;BME280_humidity;BME280_pressure;Samples;Min_cycle;Max_cycle;Signal;HPM_P1;HPM_P2
2021/06/16 00:00:28;;;;;;;2.40;1.77;;;;;;;;;;5094705;28;20073;-58
2021/06/16 00:02:54;;;;;;;2.47;1.75;;;;;;;;;;5094817;28;20028;-58
2021/06/16 00:05:22;;;;;;;3.67;2.25;;;;;;;;;;5092264;28;20039;-58
2021/06/16 00:07:48;;;;;;;5.28;2.25;;;;;;;;;;5094378;28;20382;-58
2021/06/16 00:10:15;;;;;;;3.20;2.42;;;;;;;;;;5093755;28;20086;-58
2021/06/16 00:12:41;;;;;;;3.95;2.47;;;;;;;;;;5094066;28;20024;-58
2021/06/16 00:15:12;;;;;;;2.67;2.13;;;;;;;;;;5093924;28;20032;-59
2021/06/16 00:17:38;;;;;;;3.70;2.28;;;;;;;;;;5094059;28;20056;-58
2021/06/16 00:20:04;;;;;;;3.33;2.28;;;;;;;;;;5093916;28;20020;-58
2021/06/16 00:22:30;;;;;;;3.05;2.35;;;;;;;;;;5094299;28;20051;-58
2021/06/16 00:24:56;;;;;;;3.00;1.83;;;;;;;;;;5094200;28;20095;-58
2021/06/16 00:27:22;;;;;;;4.32;2.45;;;;;;;;;;5094213;28;20559;-58
2021/06/16 00:29:48;;;;;;;3.65;2.38;;;;;;;;;;5094370;28;20028;-58
2021/06/16 00:32:14;;;;;;;3.75;2.20;;;;;;;;;;5094195;28;20020;-58
2021/06/16 00:34:41;;;;;;;3.03;1.98;;;;;;;;;;5093457;28;20024;-58
2021/06/16 00:37:07;;;;;;;3.35;2.30;;;;;;;;;;5093683;28;20373;-58
2021/06/16 00:39:33;;;;;;;3.80;2.58;;;;;;;;;;5094220;28;20020;-58
2021/06/16 00:41:59;;;;;;;2.80;2.05;;;;;;;;;;5094368;28;20028;-58
2021/06/16 00:44:25;;;;;;;4.40;2.40;;;;;;;;;;5093713;28;20020;-58
2021/06/16 00:46:51;;;;;;;3.55;2.00;;;;;;;;;;5093659;28;20030;-58
2021/06/16 00:49:17;;;;;;;3.10;2.50;;;;;;;;;;5093691;28;20473;-58
2021/06/16 00:51:43;;;;;;;3.65;2.22;;;;;;;;;;5094228;28;20020;-58
2021/06/16 00:54:12;;;;;;;3.50;2.50;;;;;;;;;;5092996;28;20020;-58
2021/06/16 00:56:39;;;;;;;3.90;2.47;;;;;;;;;;5093424;28;20028;-58
2021/06/16 00:59:06;;;;;;;3.42;2.45;;;;;;;;;;5092307;28;20016;-58
2021/06/16 01:01:33;;;;;;;5.85;3.15;;;;;;;;;;5093689;28;20016;-58
2021/06/16 01:03:59;;;;;;;3.78;2.88;;;;;;;;;;5093548;28;20025;-58
2021/06/16 01:06:25;;;;;;;3.95;2.00;;;;;;;;;;5093478;28;20047;-58
2021/06/16 01:08:56;;;;;;;5.43;2.22;;;;;;;;;;5093310;28;20047;-58
2021/06/16 01:11:22;;;;;;;3.85;2.72;;;;;;;;;;5094070;28;20035;-58
2021/06/16 01:13:49;;;;;;;4.50;2.72;;;;;;;;;;5093474;28;20028;-58
2021/06/16 01:16:28;;;;;;;4.28;3.03;;;;;;;;;;5095913;28;20263;-58
2021/06/16 01:18:55;;;;;;;5.07;3.75;;;;;;;;;;5097411;28;20146;-58
2021/06/16 01:21:23;;;;;;;3.70;2.85;;;;;;;;;;5097508;28;20450;-58
2021/06/16 01:23:49;;;;;;;3.38;2.72;;;;;;;;;;5097165;28;20024;-58
2021/06/16 01:26:21;;;;;;;6.65;3.13;;;;;;;;;;5097284;28;20114;-58
2021/06/16 01:28:48;;;;;;;5.97;2.85;;;;;;;;;;5097386;28;20024;-58
2021/06/16 01:31:16;;;;;;;4.55;3.50;;;;;;;;;;5096639;28;20032;-58
2021/06/16 01:33:44;;;;;;;5.03;3.65;;;;;;;;;;5097296;28;20069;-58
2021/06/16 01:36:11;;;;;;;6.70;3.00;;;;;;;;;;5097449;28;20036;-58
2021/06/16 01:38:37;;;;;;;9.52;3.47;;;;;;;;;;5097404;28;20043;-58
2021/06/16 01:41:04;;;;;;;8.25;3.03;;;;;;;;;;5097436;28;20024;-58
2021/06/16 01:43:31;;;;;;;5.43;3.30;;;;;;;;;;5096492;28;20485;-58
2021/06/16 01:45:58;;;;;;;4.10;3.15;;;;;;;;;;5096761;28;20036;-58
2021/06/16 01:48:25;;;;;;;4.80;3.38;;;;;;;;;;5097020;28;20020;-58
2021/06/16 01:50:52;;;;;;;3.78;3.00;;;;;;;;;;5096432;28;20028;-58
2021/06/16 01:53:19;;;;;;;3.92;3.20;;;;;;;;;;5096603;28;20024;-58
2021/06/16 01:55:46;;;;;;;4.22;3.10;;;;;;;;;;5096438;28;20023;-58
2021/06/16 01:58:12;;;;;;;4.68;2.40;;;;;;;;;;5096274;28;20094;-58
2021/06/16 02:00:40;;;;;;;4.63;3.35;;;;;;;;;;5096174;28;20027;-58
2021/06/16 02:03:06;;;;;;;4.25;2.83;;;;;;;;;;5096773;28;20035;-58
2021/06/16 02:05:33;;;;;;;3.10;2.35;;;;;;;;;;5096324;28;20119;-58
2021/06/16 02:08:03;;;;;;;7.80;3.13;;;;;;;;;;5096598;28;20059;-58
2021/06/16 02:10:34;;;;;;;4.63;3.58;;;;;;;;;;5096562;28;20052;-59
2021/06/16 02:13:01;;;;;;;4.53;2.90;;;;;;;;;;5096299;28;20028;-58
2021/06/16 02:15:30;;;;;;;4.20;2.92;;;;;;;;;;5096208;28;20085;-58
2021/06/16 02:17:58;;;;;;;5.28;3.40;;;;;;;;;;5096155;28;20060;-58
2021/06/16 02:20:24;;;;;;;5.78;3.70;;;;;;;;;;5096060;28;20024;-58
2021/06/16 02:22:50;;;;;;;15.55;3.72;;;;;;;;;;5096697;28;20016;-58
2021/06/16 02:25:17;;;;;;;3.90;3.13;;;;;;;;;;5095913;28;20116;-58
2021/06/16 02:27:43;;;;;;;5.55;3.58;;;;;;;;;;5095231;28;20028;-58
2021/06/16 02:30:09;;;;;;;6.63;3.50;;;;;;;;;;5095929;28;20081;-58
2021/06/16 02:32:36;;;;;;;5.47;3.63;;;;;;;;;;5095675;28;20106;-58
2021/06/16 02:35:03;;;;;;;5.82;3.08;;;;;;;;;;5095743;28;20103;-58
2021/06/16 02:37:30;;;;;;;4.60;3.42;;;;;;;;;;5096062;28;20374;-58
2021/06/16 02:39:58;;;;;;;3.63;2.85;;;;;;;;;;5096271;28;20035;-58
2021/06/16 02:42:25;;;;;;;5.10;3.63;;;;;;;;;;5096028;28;20031;-58
2021/06/16 02:44:51;;;;;;;4.55;3.58;;;;;;;;;;5095557;28;20072;-58
2021/06/16 02:47:18;;;;;;;6.72;3.78;;;;;;;;;;5095611;28;20020;-58
2021/06/16 02:49:45;;;;;;;3.80;3.13;;;;;;;;;;5095515;28;20069;-58
2021/06/16 02:52:12;;;;;;;5.05;3.20;;;;;;;;;;5094566;28;20069;-58
2021/06/16 02:54:39;;;;;;;3.72;3.25;;;;;;;;;;5095387;28;20020;-58
2021/06/16 02:57:05;;;;;;;5.03;3.15;;;;;;;;;;5094935;28;20065;-58
2021/06/16 02:59:33;;;;;;;4.53;3.20;;;;;;;;;;5095204;28;20020;-58
2021/06/16 03:01:59;;;;;;;4.60;3.20;;;;;;;;;;5094036;28;20119;-58
2021/06/16 03:04:25;;;;;;;6.18;3.92;;;;;;;;;;5095253;28;20115;-58
2021/06/16 03:06:52;;;;;;;4.03;3.00;;;;;;;;;;5095124;28;20039;-58
2021/06/16 03:09:19;;;;;;;7.00;3.58;;;;;;;;;;5094708;28;20048;-58
2021/06/16 03:11:45;;;;;;;6.57;3.22;;;;;;;;;;5094799;28;20065;-58
2021/06/16 03:14:11;;;;;;;5.20;3.38;;;;;;;;;;5094966;28;20373;-58
2021/06/16 03:16:37;;;;;;;5.95;2.97;;;;;;;;;;5095420;28;20021;-58
2021/06/16 03:19:05;;;;;;;5.75;3.47;;;;;;;;;;5094880;28;20012;-58
2021/06/16 03:21:32;;;;;;;5.43;3.45;;;;;;;;;;5095203;28;20020;-58
2021/06/16 03:23:59;;;;;;;3.45;3.10;;;;;;;;;;5094856;28;20024;-58
2021/06/16 03:26:27;;;;;;;6.43;3.50;;;;;;;;;;5094725;28;20035;-58
2021/06/16 03:28:54;;;;;;;5.00;3.28;;;;;;;;;;5095046;28;20058;-58
2021/06/16 03:31:20;;;;;;;4.25;2.90;;;;;;;;;;5095283;28;20024;-58
2021/06/16 03:33:47;;;;;;;3.63;3.30;;;;;;;;;;5094738;28;20020;-58
2021/06/16 03:36:13;;;;;;;5.10;2.85;;;;;;;;;;5095152;28;20032;-58
2021/06/16 03:38:40;;;;;;;4.68;3.17;;;;;;;;;;5093720;28;20047;-58
2021/06/16 03:41:07;;;;;;;4.55;2.88;;;;;;;;;;5093688;28;20035;-58
2021/06/16 03:43:33;;;;;;;3.70;3.22;;;;;;;;;;5093323;28;20024;-58
2021/06/16 03:46:00;;;;;;;4.15;3.35;;;;;;;;;;5095095;28;20039;-58
2021/06/16 03:48:26;;;;;;;10.05;4.15;;;;;;;;;;5094952;28;20023;-58
2021/06/16 03:50:53;;;;;;;3.95;2.60;;;;;;;;;;5094162;28;20481;-58
2021/06/16 03:53:20;;;;;;;3.78;2.67;;;;;;;;;;5094414;28;20351;-58
2021/06/16 03:55:48;;;;;;;3.83;3.20;;;;;;;;;;5093907;28;20426;-58
2021/06/16 03:58:14;;;;;;;4.38;3.05;;;;;;;;;;5094610;28;20335;-58
2021/06/16 04:00:41;;;;;;;3.55;2.90;;;;;;;;;;5094320;28;20358;-58
2021/06/16 04:03:08;;;;;;;4.13;3.00;;;;;;;;;;5094439;28;20339;-58
2021/06/16 04:05:34;;;;;;;3.92;2.90;;;;;;;;;;5094136;28;20036;-58
2021/06/16 04:08:01;;;;;;;5.07;3.42;;;;;;;;;;5094683;28;20035;-58
2021/06/16 04:10:27;;;;;;;3.90;2.83;;;;;;;;;;5092904;28;20052;-58
2021/06/16 04:12:53;;;;;;;7.53;3.97;;;;;;;;;;5093797;28;20147;-58
2021/06/16 04:15:20;;;;;;;6.95;3.10;;;;;;;;;;5094119;28;20020;-58
2021/06/16 04:17:46;;;;;;;13.73;3.70;;;;;;;;;;5094167;28;20410;-58
2021/06/16 04:20:13;;;;;;;3.58;2.70;;;;;;;;;;5094466;28;20112;-58
2021/06/16 04:22:39;;;;;;;4.90;3.05;;;;;;;;;;5093894;28;20024;-58
2021/06/16 04:25:06;;;;;;;4.40;3.45;;;;;;;;;;5092805;28;20030;-58
2021/06/16 04:27:32;;;;;;;5.18;3.25;;;;;;;;;;5093475;28;20354;-58
2021/06/16 04:29:58;;;;;;;5.43;3.15;;;;;;;;;;5094203;28;20024;-58
2021/06/16 04:32:25;;;;;;;5.57;2.92;;;;;;;;;;5094795;28;20025;-58
2021/06/16 04:34:51;;;;;;;4.47;2.95;;;;;;;;;;5094420;28;20373;-58
2021/06/16 04:37:17;;;;;;;3.65;2.80;;;;;;;;;;5094179;28;20019;-58
2021/06/16 04:39:43;;;;;;;4.65;2.47;;;;;;;;;;5093902;28;20028;-58
2021/06/16 04:42:09;;;;;;;2.80;2.05;;;;;;;;;;5093136;28;20138;-58
2021/06/16 04:44:35;;;;;;;5.57;2.60;;;;;;;;;;5094287;28;20180;-58
2021/06/16 04:47:01;;;;;;;3.35;2.33;;;;;;;;;;5093649;28;20471;-58
2021/06/16 04:49:30;;;;;;;3.65;2.03;;;;;;;;;;5093657;28;20016;-58
2021/06/16 04:51:56;;;;;;;4.53;3.20;;;;;;;;;;5097288;28;20466;-58
2021/06/16 04:54:21;;;;;;;3.78;2.53;;;;;;;;;;5097751;28;20074;-58
2021/06/16 04:56:47;;;;;;;5.90;2.67;;;;;;;;;;5097431;28;20030;-58
2021/06/16 04:59:13;;;;;;;4.30;2.75;;;;;;;;;;5097987;28;20392;-58
2021/06/16 05:01:39;;;;;;;4.38;3.42;;;;;;;;;;5098222;28;20020;-58
2021/06/16 05:04:06;;;;;;;4.90;2.95;;;;;;;;;;5097665;28;20020;-60
2021/06/16 05:06:32;;;;;;;5.38;3.20;;;;;;;;;;5097530;28;20028;-58
2021/06/16 05:08:58;;;;;;;4.90;2.80;;;;;;;;;;5097365;28;20051;-58
2021/06/16 05:11:24;;;;;;;3.95;3.38;;;;;;;;;;5096294;28;20030;-58
2021/06/16 05:13:50;;;;;;;3.67;2.72;;;;;;;;;;5097015;28;20107;-58
2021/06/16 05:16:16;;;;;;;4.70;3.05;;;;;;;;;;5097344;28;20051;-58
2021/06/16 05:18:46;;;;;;;5.18;3.13;;;;;;;;;;5097296;28;20013;-58
2021/06/16 05:21:13;;;;;;;8.57;3.00;;;;;;;;;;5097934;28;20020;-58
2021/06/16 05:23:39;;;;;;;4.40;3.38;;;;;;;;;;5097237;28;20027;-58
2021/06/16 05:26:05;;;;;;;5.90;2.78;;;;;;;;;;5096866;28;20039;-58
2021/06/16 05:28:31;;;;;;;4.35;2.88;;;;;;;;;;5096825;28;20473;-58
2021/06/16 05:30:57;;;;;;;3.78;2.53;;;;;;;;;;5095896;28;20024;-58
2021/06/16 05:33:23;;;;;;;9.93;3.50;;;;;;;;;;5096658;28;20024;-58
2021/06/16 05:35:49;;;;;;;4.97;3.22;;;;;;;;;;5097080;28;20024;-58
2021/06/16 05:38:15;;;;;;;3.78;2.78;;;;;;;;;;5096906;28;20436;-58
2021/06/16 05:40:42;;;;;;;7.50;3.60;;;;;;;;;;5096891;28;20024;-58
2021/06/16 05:43:10;;;;;;;4.97;3.22;;;;;;;;;;5096608;28;20024;-58
2021/06/16 05:45:36;;;;;;;3.35;2.78;;;;;;;;;;5096717;28;20035;-58
2021/06/16 05:48:02;;;;;;;3.95;2.40;;;;;;;;;;5095655;28;20358;-58
2021/06/16 05:50:28;;;;;;;6.53;3.40;;;;;;;;;;5096774;28;20051;-58
2021/06/16 05:52:54;;;;;;;2.90;2.42;;;;;;;;;;5097125;28;20024;-58
2021/06/16 05:55:20;;;;;;;4.25;3.00;;;;;;;;;;5096559;28;20051;-58
2021/06/16 05:57:46;;;;;;;4.50;3.10;;;;;;;;;;5095254;28;20028;-58
2021/06/16 06:00:13;;;;;;;4.60;3.00;;;;;;;;;;5095041;28;20063;-58
2021/06/16 06:02:38;;;;;;;5.10;3.67;;;;;;;;;;5095998;28;20020;-58
2021/06/16 06:05:05;;;;;;;3.83;2.58;;;;;;;;;;5096702;28;20035;-58
2021/06/16 06:07:31;;;;;;;3.88;3.20;;;;;;;;;;5096365;28;20012;-58
2021/06/16 06:09:57;;;;;;;3.35;2.85;;;;;;;;;;5096541;28;20599;-58
2021/06/16 06:12:23;;;;;;;5.22;3.70;;;;;;;;;;5096220;28;20021;-58
2021/06/16 06:14:49;;;;;;;4.85;3.83;;;;;;;;;;5096870;28;20024;-58
2021/06/16 06:17:15;;;;;;;4.90;3.25;;;;;;;;;;5096012;28;20027;-58
2021/06/16 06:19:41;;;;;;;10.70;3.00;;;;;;;;;;5096478;28;20095;-58
2021/06/16 06:22:08;;;;;;;6.43;3.58;;;;;;;;;;5096600;28;20073;-58
2021/06/16 06:24:34;;;;;;;7.40;3.50;;;;;;;;;;5096766;28;20097;-58
2021/06/16 06:27:00;;;;;;;4.18;3.10;;;;;;;;;;5096301;28;20206;-58
2021/06/16 06:29:26;;;;;;;4.88;3.25;;;;;;;;;;5096272;28;20017;-59
2021/06/16 06:31:55;;;;;;;3.55;2.38;;;;;;;;;;5096169;28;20044;-58
2021/06/16 06:34:21;;;;;;;6.28;3.00;;;;;;;;;;5095799;28;20039;-59
2021/06/16 06:36:47;;;;;;;5.28;3.90;;;;;;;;;;5095299;28;20028;-59
2021/06/16 06:39:14;;;;;;;10.65;3.97;;;;;;;;;;5095599;28;20020;-59
2021/06/16 06:41:40;;;;;;;5.30;3.40;;;;;;;;;;5096393;28;20024;-59
2021/06/16 06:44:06;;;;;;;6.03;2.88;;;;;;;;;;5095425;28;20376;-59
2021/06/16 06:46:32;;;;;;;5.10;2.50;;;;;;;;;;5095508;28;20119;-59
2021/06/16 06:48:58;;;;;;;4.28;2.75;;;;;;;;;;5094374;28;20055;-58
2021/06/16 06:51:24;;;;;;;4.63;2.50;;;;;;;;;;5095939;28;20077;-59
2021/06/16 06:53:51;;;;;;;6.30;2.58;;;;;;;;;;5095469;28;20069;-59
2021/06/16 06:56:17;;;;;;;5.82;2.92;;;;;;;;;;5095434;28;20024;-59
2021/06/16 06:58:43;;;;;;;3.40;2.28;;;;;;;;;;5096417;28;20027;-59
2021/06/16 07:01:09;;;;;;;3.85;2.70;;;;;;;;;;5096029;28;20034;-59
2021/06/16 07:03:35;;;;;;;3.35;2.38;;;;;;;;;;5077552;28;20450;-58
2021/06/16 07:06:01;;;;;;;4.43;2.28;;;;;;;;;;5095509;28;20059;-59
2021/06/16 07:08:27;;;;;;;3.45;2.40;;;;;;;;;;5094998;28;20410;-59
2021/06/16 07:10:53;;;;;;;12.20;2.83;;;;;;;;;;5095258;28;20047;-59
2021/06/16 07:13:19;;;;;;;6.22;2.80;;;;;;;;;;5094832;28;20042;-59
2021/06/16 07:15:45;;;;;;;3.10;2.33;;;;;;;;;;5094720;28;20549;-59
2021/06/16 07:18:11;;;;;;;6.45;2.50;;;;;;;;;;5095049;28;20020;-59
2021/06/16 07:20:37;;;;;;;4.07;2.40;;;;;;;;;;5095019;28;20020;-59
2021/06/16 07:23:03;;;;;;;4.20;2.47;;;;;;;;;;5095173;28;20056;-59
2021/06/16 07:25:29;;;;;;;7.47;2.60;;;;;;;;;;5093593;28;20449;-59
2021/06/16 07:27:55;;;;;;;3.95;2.20;;;;;;;;;;5094779;28;20031;-59
2021/06/16 07:30:21;;;;;;;4.25;3.03;;;;;;;;;;5094864;28;20031;-59
2021/06/16 07:32:48;;;;;;;4.40;2.50;;;;;;;;;;5095094;28;20109;-59
2021/06/16 07:35:15;;;;;;;2.65;1.95;;;;;;;;;;5093484;28;20032;-59
2021/06/16 07:37:41;;;;;;;2.90;1.98;;;;;;;;;;5094719;28;20024;-59
2021/06/16 07:40:09;;;;;;;6.35;3.08;;;;;;;;;;5094935;28;20020;-59
2021/06/16 07:42:35;;;;;;;2.88;2.20;;;;;;;;;;5094787;28;20465;-59
2021/06/16 07:45:01;;;;;;;3.05;2.08;;;;;;;;;;5094127;28;20098;-59
2021/06/16 07:47:27;;;;;;;6.28;2.60;;;;;;;;;;5094768;28;20074;-59
2021/06/16 07:49:53;;;;;;;3.85;2.33;;;;;;;;;;5094468;28;20028;-59
2021/06/16 07:52:19;;;;;;;4.85;2.40;;;;;;;;;;5095220;28;20016;-59
2021/06/16 07:54:45;;;;;;;3.92;2.25;;;;;;;;;;5094452;28;20024;-59
2021/06/16 07:57:11;;;;;;;5.97;1.80;;;;;;;;;;5094253;28;20051;-59
2021/06/16 07:59:37;;;;;;;6.18;2.75;;;;;;;;;;5094250;28;20488;-59
2021/06/16 08:02:04;;;;;;;3.28;2.15;;;;;;;;;;5094849;28;20103;-59
2021/06/16 08:04:32;;;;;;;3.13;1.92;;;;;;;;;;5094249;28;20021;-59
2021/06/16 08:06:58;;;;;;;3.97;2.28;;;;;;;;;;5094118;28;20027;-59
2021/06/16 08:09:24;;;;;;;3.55;1.80;;;;;;;;;;5094049;28;20040;-59
2021/06/16 08:11:50;;;;;;;4.72;2.05;;;;;;;;;;5094608;28;20040;-59
2021/06/16 08:14:16;;;;;;;4.03;2.58;;;;;;;;;;5094567;28;20024;-59
2021/06/16 08:16:42;;;;;;;4.07;2.55;;;;;;;;;;5093973;28;20056;-59
2021/06/16 08:19:08;;;;;;;4.15;2.00;;;;;;;;;;5094547;28;20100;-59
2021/06/16 08:21:34;;;;;;;3.75;2.63;;;;;;;;;;5094071;28;20450;-59
2021/06/16 08:24:01;;;;;;;2.42;1.67;;;;;;;;;;5092496;28;20027;-59
2021/06/16 08:26:27;;;;;;;2.67;1.88;;;;;;;;;;5093370;28;20051;-59
2021/06/16 08:28:53;;;;;;;2.10;1.52;;;;;;;;;;5094353;28;20028;-59
2021/06/16 08:31:19;;;;;;;2.63;1.83;;;;;;;;;;5094545;28;20028;-59
2021/06/16 08:33:48;;;;;;;3.35;2.10;;;;;;;;;;5093780;28;20470;-59
2021/06/16 08:36:14;;;;;;;5.65;2.42;;;;;;;;;;5092508;28;20066;-59
2021/06/16 08:38:40;;;;;;;3.92;2.40;;;;;;;;;;5093613;28;20020;-59
2021/06/16 08:41:08;;;;;;;2.55;1.58;;;;;;;;;;5094655;28;20027;-59
2021/06/16 08:43:41;;;;;;;3.40;1.75;;;;;;;;;;5093765;28;20031;-59
2021/06/16 08:46:08;;;;;;;5.30;2.25;;;;;;;;;;5094150;28;20409;-59
2021/06/16 08:48:36;;;;;;;3.13;1.85;;;;;;;;;;5094008;28;20104;-59
2021/06/16 08:51:02;;;;;;;7.15;2.17;;;;;;;;;;5093168;28;20039;-59
2021/06/16 08:53:28;;;;;;;6.78;3.13;;;;;;;;;;5094251;28;20020;-59
2021/06/16 08:55:54;;;;;;;3.58;2.05;;;;;;;;;;5093580;28;20032;-59
2021/06/16 08:58:20;;;;;;;4.40;2.47;;;;;;;;;;5093900;28;20012;-59
2021/06/16 09:00:46;;;;;;;5.80;2.35;;;;;;;;;;5093536;28;20086;-59
2021/06/16 09:03:12;;;;;;;3.00;2.33;;;;;;;;;;5094073;28;20032;-59
2021/06/16 09:05:38;;;;;;;4.35;1.73;;;;;;;;;;5093471;28;20105;-59
2021/06/16 09:08:14;;;;;;;2.92;1.95;;;;;;;;;;5093576;28;20024;-59
2021/06/16 09:10:44;;;;;;;6.90;2.50;;;;;;;;;;5093960;28;20044;-59
2021/06/16 09:13:11;;;;;;;2.03;1.58;;;;;;;;;;5094094;28;20024;-59
2021/06/16 09:15:38;;;;;;;2.60;1.90;;;;;;;;;;5093241;28;20492;-59
2021/06/16 09:18:04;;;;;;;2.53;1.83;;;;;;;;;;5093942;28;20107;-59
2021/06/16 09:20:31;;;;;;;2.90;1.60;;;;;;;;;;5093408;28;20078;-60
2021/06/16 09:23:18;;;;;;;6.28;2.47;;;;;;;;;;5093778;28;20110;-60
2021/06/16 09:25:44;;;;;;;7.13;2.20;;;;;;;;;;5093655;28;20056;-59
2021/06/16 09:28:11;;;;;;;3.10;2.13;;;;;;;;;;5093396;28;20441;-60
2021/06/16 09:30:42;;;;;;;3.05;2.20;;;;;;;;;;5093387;28;20016;-59
2021/06/16 09:33:12;;;;;;;2.65;2.22;;;;;;;;;;5093404;28;20115;-59
2021/06/16 09:35:38;;;;;;;;;;;;;;;;;;5094777;28;20028;-59
2021/06/16 09:38:06;;;;;;;4.60;1.60;;;;;;;;;;5096987;28;19911;-60
2021/06/16 09:40:33;;;;;;;3.40;2.08;;;;;;;;;;5097211;28;20461;-59
2021/06/16 09:43:02;;;;;;;3.97;2.50;;;;;;;;;;5096919;28;20072;-60
2021/06/16 09:45:29;;;;;;;3.00;1.77;;;;;;;;;;5096836;28;20064;-60
2021/06/16 09:47:55;;;;;;;3.58;2.03;;;;;;;;;;5097428;28;20254;-60
2021/06/16 09:50:22;;;;;;;3.97;2.58;;;;;;;;;;5096782;28;20025;-60
2021/06/16 09:52:48;;;;;;;3.08;1.65;;;;;;;;;;5097235;28;20361;-60
2021/06/16 09:55:14;;;;;;;2.65;1.90;;;;;;;;;;5096950;28;20158;-60
2021/06/16 09:57:58;;;;;;;3.55;2.35;;;;;;;;;;5096510;28;20099;-59
2021/06/16 10:00:28;;;;;;;2.95;2.10;;;;;;;;;;5095347;28;20055;-60
2021/06/16 10:03:10;;;;;;;3.00;2.38;;;;;;;;;;5096870;28;20462;-60
2021/06/16 10:05:56;;;;;;;6.53;1.73;;;;;;;;;;5096477;28;20382;-60
2021/06/16 10:08:24;;;;;;;3.65;2.55;;;;;;;;;;5096465;28;20020;-60
2021/06/16 10:10:51;;;;;;;5.07;2.13;;;;;;;;;;5096877;28;20114;-59
2021/06/16 10:13:21;;;;;;;3.30;2.20;;;;;;;;;;5096369;28;20450;-60
2021/06/16 10:15:47;;;;;;;4.57;2.03;;;;;;;;;;5096507;28;20098;-60
2021/06/16 10:18:13;;;;;;;3.67;2.45;;;;;;;;;;5096519;28;20031;-60
2021/06/16 10:20:39;;;;;;;2.55;1.60;;;;;;;;;;5096806;28;20024;-60
2021/06/16 10:23:05;;;;;;;3.67;2.08;;;;;;;;;;5096180;28;20066;-60
2021/06/16 10:25:31;;;;;;;2.83;2.00;;;;;;;;;;5096081;28;20517;-60
2021/06/16 10:27:59;;;;;;;2.58;1.83;;;;;;;;;;5096265;28;20358;-60
2021/06/16 10:30:26;;;;;;;4.22;2.05;;;;;;;;;;5096816;28;20331;-59
2021/06/16 10:32:52;;;;;;;4.20;2.03;;;;;;;;;;5096517;28;20031;-60
2021/06/16 10:35:36;;;;;;;3.22;2.40;;;;;;;;;;5095969;28;20020;-60
2021/06/16 10:38:11;;;;;;;2.95;2.05;;;;;;;;;;5094214;28;20024;-60
2021/06/16 10:40:48;;;;;;;6.57;2.65;;;;;;;;;;5096378;28;20044;-60
2021/06/16 10:43:16;;;;;;;2.72;1.90;;;;;;;;;;5096681;28;20024;-60
2021/06/16 10:45:50;;;;;;;3.35;2.55;;;;;;;;;;5095685;28;20024;-60
2021/06/16 10:48:16;;;;;;;3.58;2.20;;;;;;;;;;5093826;28;20032;-60
2021/06/16 10:50:46;;;;;;;2.55;2.03;;;;;;;;;;5095455;28;20085;-60
2021/06/16 10:53:12;;;;;;;3.35;2.22;;;;;;;;;;5095196;28;20020;-60
2021/06/16 10:58:21;;;;;;;3.10;2.40;;;;;;;;;;5095822;28;20032;-60
2021/06/16 11:01:05;;;;;;;2.45;1.85;;;;;;;;;;5096257;28;20016;-60
2021/06/16 11:03:47;;;;;;;2.70;2.00;;;;;;;;;;5095333;28;20027;-60
2021/06/16 11:06:31;;;;;;;4.97;2.00;;;;;;;;;;5095228;28;20149;-60
2021/06/16 11:08:57;;;;;;;3.83;2.42;;;;;;;;;;5095300;28;20048;-60
2021/06/16 11:11:24;;;;;;;3.10;1.90;;;;;;;;;;5095737;28;20027;-60
2021/06/16 11:13:50;;;;;;;3.53;2.10;;;;;;;;;;5094646;28;20016;-60
2021/06/16 11:16:35;;;;;;;4.10;2.55;;;;;;;;;;5095076;28;20031;-60
2021/06/16 11:19:21;;;;;;;4.03;2.85;;;;;;;;;;5094983;28;20024;-60
2021/06/16 11:21:47;;;;;;;3.53;2.10;;;;;;;;;;5095741;28;20385;-60
2021/06/16 11:24:12;;;;;;;3.05;2.30;;;;;;;;;;5094881;28;20023;-60
2021/06/16 11:26:42;;;;;;;3.13;2.40;;;;;;;;;;5094774;28;20035;-60
2021/06/16 11:29:08;;;;;;;3.30;2.40;;;;;;;;;;5094784;28;20017;-60
2021/06/16 11:31:54;;;;;;;2.90;2.17;;;;;;;;;;5095469;28;20343;-60
2021/06/16 11:34:39;;;;;;;5.72;2.58;;;;;;;;;;5094298;28;20461;-59
2021/06/16 11:37:04;;;;;;;3.30;1.98;;;;;;;;;;5094764;28;20032;-60
2021/06/16 11:39:30;;;;;;;4.03;2.72;;;;;;;;;;5094969;28;20035;-60
2021/06/16 11:41:57;;;;;;;3.40;2.08;;;;;;;;;;5094802;28;20496;-60
2021/06/16 11:44:24;;;;;;;4.72;2.80;;;;;;;;;;5094801;28;20023;-60
2021/06/16 11:46:50;;;;;;;2.85;2.17;;;;;;;;;;5094529;28;20115;-60
2021/06/16 11:49:27;;;;;;;3.55;2.70;;;;;;;;;;5094515;28;20031;-60
2021/06/16 11:51:53;;;;;;;2.40;1.88;;;;;;;;;;5094821;28;20027;-60
2021/06/16 11:54:30;;;;;;;3.13;2.40;;;;;;;;;;5094516;28;20024;-60
2021/06/16 11:57:00;;;;;;;9.32;1.83;;;;;;;;;;5094336;28;20032;-60
2021/06/16 11:59:29;;;;;;;3.72;2.70;;;;;;;;;;5093732;28;20023;-60
2021/06/16 12:02:08;;;;;;;4.30;2.47;;;;;;;;;;5094705;28;20024;-60
2021/06/16 12:04:49;;;;;;;3.67;2.38;;;;;;;;;;5094768;28;20111;-60
2021/06/16 12:07:34;;;;;;;3.00;2.10;;;;;;;;;;5094180;28;20373;-60
2021/06/16 12:10:02;;;;;;;4.03;3.10;;;;;;;;;;5094487;28;20051;-60
2021/06/16 12:12:28;;;;;;;2.88;2.10;;;;;;;;;;5094742;28;20042;-60
2021/06/16 12:15:07;;;;;;;3.35;2.42;;;;;;;;;;5094667;28;20411;-60
2021/06/16 12:17:34;;;;;;;3.60;2.53;;;;;;;;;;5094044;28;20052;-60
2021/06/16 12:20:05;;;;;;;2.78;1.83;;;;;;;;;;5093791;28;20020;-60
2021/06/16 12:22:31;;;;;;;2.42;1.80;;;;;;;;;;5094681;28;20073;-60
2021/06/16 12:24:57;;;;;;;3.78;2.75;;;;;;;;;;5094068;28;20458;-60
2021/06/16 12:27:23;;;;;;;2.60;2.38;;;;;;;;;;5093869;28;20035;-60
2021/06/16 12:29:54;;;;;;;3.10;2.17;;;;;;;;;;5093579;28;20024;-60
2021/06/16 12:32:28;;;;;;;3.33;2.00;;;;;;;;;;5094474;28;20020;-60
2021/06/16 12:35:28;;;;;;;3.40;2.50;;;;;;;;;;5093846;28;20020;-60
2021/06/16 12:37:54;;;;;;;;;;;;;;;;;;5079934;28;20454;-60
2021/06/16 12:40:31;;;;;;;3.00;1.92;;;;;;;;;;5094149;28;19995;-60
2021/06/16 12:42:57;;;;;;;4.47;2.95;;;;;;;;;;5094446;28;20032;-60
2021/06/16 12:45:30;;;;;;;3.40;2.65;;;;;;;;;;5093687;28;20024;-60
2021/06/16 12:47:57;;;;;;;6.47;2.25;;;;;;;;;;5093569;28;20055;-60
2021/06/16 12:50:41;;;;;;;3.33;2.58;;;;;;;;;;5093769;28;20469;-60
2021/06/16 12:53:13;;;;;;;7.80;3.13;;;;;;;;;;5093692;28;20383;-59
2021/06/16 12:55:43;;;;;;;3.80;2.60;;;;;;;;;;5093657;28;20028;-59
2021/06/16 12:58:09;;;;;;;;;;;;;;;;;;5094463;28;20031;-59
2021/06/16 13:00:36;;;;;;;2.30;1.77;;;;;;;;;;5093786;28;20272;-60
2021/06/16 13:03:12;;;;;;;2.78;2.38;;;;;;;;;;5093711;28;20052;-59
2021/06/16 13:05:41;;;;;;;3.58;2.25;;;;;;;;;;5093317;28;20492;-60
2021/06/16 13:08:07;;;;;;;4.25;2.28;;;;;;;;;;5094472;28;20024;-59
2021/06/16 13:10:37;;;;;;;3.35;2.65;;;;;;;;;;5094420;28;20055;-59
2021/06/16 13:13:15;;;;;;;3.75;2.78;;;;;;;;;;5097484;28;20048;-59
2021/06/16 13:15:43;;;;;;;3.63;2.58;;;;;;;;;;5097558;28;20023;-60
2021/06/16 13:18:22;;;;;;;3.47;2.30;;;;;;;;;;5097418;28;20012;-59
2021/06/16 13:20:49;;;;;;;2.15;1.67;;;;;;;;;;5097508;28;20020;-59
2021/06/16 13:23:18;;;;;;;3.60;2.58;;;;;;;;;;5097652;28;20059;-59
2021/06/16 13:25:45;;;;;;;7.65;2.10;;;;;;;;;;5097223;28;20070;-59
2021/06/16 13:28:22;;;;;;;6.78;3.38;;;;;;;;;;5097170;28;20083;-59
2021/06/16 13:30:48;;;;;;;2.83;2.25;;;;;;;;;;5097162;28;20398;-60
2021/06/16 13:33:14;;;;;;;5.63;2.15;;;;;;;;;;5097754;28;20059;-59
2021/06/16 13:35:41;;;;;;;3.13;2.13;;;;;;;;;;5097710;28;20369;-59
2021/06/16 13:38:06;;;;;;;2.33;1.75;;;;;;;;;;5097522;28;20330;-59
2021/06/16 13:40:33;;;;;;;3.80;2.80;;;;;;;;;;5097270;28;20027;-59
2021/06/16 13:43:00;;;;;;;3.45;2.25;;;;;;;;;;5097214;28;20377;-60
2021/06/16 13:45:26;;;;;;;4.15;2.13;;;;;;;;;;5096714;28;20070;-60
2021/06/16 13:47:54;;;;;;;3.72;2.03;;;;;;;;;;5097331;28;20024;-60
2021/06/16 13:50:20;;;;;;;2.85;2.25;;;;;;;;;;5096788;28;20031;-60
2021/06/16 13:52:47;;;;;;;2.92;2.15;;;;;;;;;;5097283;28;20077;-60
2021/06/16 13:55:13;;;;;;;4.55;2.33;;;;;;;;;;5096917;28;20027;-60
2021/06/16 13:57:39;;;;;;;3.25;2.30;;;;;;;;;;5096525;28;20111;-59
2021/06/16 14:00:06;;;;;;;3.83;2.53;;;;;;;;;;5097130;28;20097;-59
2021/06/16 14:02:34;;;;;;;2.60;2.20;;;;;;;;;;5096519;28;20058;-59
2021/06/16 14:05:00;;;;;;;3.25;2.13;;;;;;;;;;5096525;28;20025;-59
2021/06/16 14:07:26;;;;;;;2.47;1.98;;;;;;;;;;5096423;28;20040;-60
2021/06/16 14:09:52;;;;;;;3.63;2.17;;;;;;;;;;5097027;28;20083;-60
2021/06/16 14:12:18;;;;;;;3.97;2.58;;;;;;;;;;5096387;28;20081;-60
2021/06/16 14:14:48;;;;;;;3.00;2.30;;;;;;;;;;5096288;28;20024;-60
2021/06/16 14:17:14;;;;;;;2.75;2.15;;;;;;;;;;5096084;28;20043;-60
2021/06/16 14:19:41;;;;;;;5.72;2.40;;;;;;;;;;5096240;28;20024;-60
2021/06/16 14:22:07;;;;;;;3.03;2.33;;;;;;;;;;5096449;28;20043;-60
2021/06/16 14:24:33;;;;;;;3.05;2.38;;;;;;;;;;5095902;28;20027;-60
2021/06/16 14:26:59;;;;;;;2.88;2.30;;;;;;;;;;5096000;28;20036;-60
2021/06/16 14:29:25;;;;;;;2.97;1.90;;;;;;;;;;5096586;28;20024;-60
2021/06/16 14:31:51;;;;;;;3.42;2.53;;;;;;;;;;5096595;28;20048;-60
2021/06/16 14:34:17;;;;;;;5.00;2.60;;;;;;;;;;5096023;28;20063;-60
2021/06/16 14:36:43;;;;;;;3.05;2.35;;;;;;;;;;5096205;28;20048;-60
2021/06/16 14:39:09;;;;;;;3.28;2.17;;;;;;;;;;5095879;28;20029;-60
2021/06/16 14:41:35;;;;;;;5.85;2.55;;;;;;;;;;5095798;28;20024;-60
2021/06/16 14:44:01;;;;;;;6.30;3.17;;;;;;;;;;5095490;28;20030;-60
2021/06/16 14:46:27;;;;;;;3.25;2.40;;;;;;;;;;5095692;28;20465;-60
2021/06/16 14:48:53;;;;;;;2.88;2.22;;;;;;;;;;5095715;28;20070;-60